Time;durP1;ratioP1;P1;durP2;ratioP2;P2;SDS_P1;SDS_P2;PMS_P1;PMS_P2;Temp;Humidity;BMP_temperature;BMP_pressure;BME280_temperature;BME280_humidity;BME280_pressure;Samples;Min_cycle;Max_cycle;Signal;HPM_P1;HPM_P2
2022/01/01 00:00:04;;;;;;;66.20;31.08;;;;;;;;;;2115629;28;20112;-55
2022/01/01 00:01:05;;;;;;;69.95;32.45;;;;;;;;;;2113142;28;20578;-57
2022/01/01 00:02:07;;;;;;;58.03;29.20;;;;;;;;;;2109797;28;20442;-55
2022/01/01 00:03:28;;;;;;;64.35;30.83;;;;;;;;;;2115504;28;20047;-57
2022/01/01 00:04:29;;;;;;;52.65;28.10;;;;;;;;;;2109197;28;20143;-55
2022/01/01 00:05:30;;;;;;;63.55;31.40;;;;;;;;;;2106172;28;20071;-57
2022/01/01 00:06:31;;;;;;;57.67;29.50;;;;;;;;;;2107030;28;20134;-56
2022/01/01 00:07:33;;;;;;;59.63;28.42;;;;;;;;;;2108091;28;20286;-57
2022/01/01 00:08:34;;;;;;;;;;;;;;;;;;2107487;28;20135;-58
2022/01/01 00:09:35;;;;;;;61.33;31.08;;;;;;;;;;2107141;28;19924;-57
2022/01/01 00:10:37;;;;;;;60.47;32.33;;;;;;;;;;2107889;28;20123;-57
2022/01/01 00:11:49;;;;;;;;;;;;;;;;;;2107452;28;20044;-57
2022/01/01 00:12:50;;;;;;;57.72;30.17;;;;;;;;;;2106461;28;19959;-56
2022/01/01 00:13:51;;;;;;;55.38;30.35;;;;;;;;;;2103042;28;20055;-57
2022/01/01 00:14:53;;;;;;;58.70;31.35;;;;;;;;;;2098633;28;20044;-54
2022/01/01 00:15:54;;;;;;;54.10;29.65;;;;;;;;;;2099329;28;20055;-55
2022/01/01 00:16:55;;;;;;;55.73;30.37;;;;;;;;;;2104997;28;20044;-56
2022/01/01 00:17:57;;;;;;;55.95;30.73;;;;;;;;;;2107121;28;20055;-56
2022/01/01 00:18:58;;;;;;;52.42;29.17;;;;;;;;;;2105581;28;20139;-55
2022/01/01 00:19:59;;;;;;;48.92;26.92;;;;;;;;;;2105823;28;20124;-58
2022/01/01 00:21:00;;;;;;;48.73;26.30;;;;;;;;;;2098632;28;20420;-56
2022/01/01 00:22:02;;;;;;;57.50;26.02;;;;;;;;;;2098186;28;20044;-58
2022/01/01 00:23:03;;;;;;;49.45;25.05;;;;;;;;;;2106026;28;20277;-58
2022/01/01 00:24:04;;;;;;;59.13;28.53;;;;;;;;;;2106838;28;20044;-58
2022/01/01 00:25:06;;;;;;;52.67;28.63;;;;;;;;;;2104816;28;20289;-57
2022/01/01 00:26:07;;;;;;;55.22;28.15;;;;;;;;;;2105388;28;20473;-59
2022/01/01 00:27:08;;;;;;;66.13;30.33;;;;;;;;;;2106985;28;20127;-58
2022/01/01 00:28:10;;;;;;;47.35;26.95;;;;;;;;;;2105996;28;20058;-58
2022/01/01 00:29:12;;;;;;;54.90;30.38;;;;;;;;;;2112825;28;20522;-58
2022/01/01 00:30:13;;;;;;;51.65;28.10;;;;;;;;;;2115268;28;20039;-58
2022/01/01 00:31:14;;;;;;;41.92;24.52;;;;;;;;;;2110378;28;20040;-54
2022/01/01 00:32:15;;;;;;;50.35;26.70;;;;;;;;;;2105540;28;20055;-56
2022/01/01 00:33:16;;;;;;;49.80;25.98;;;;;;;;;;2106946;28;20048;-58
2022/01/01 00:34:17;;;;;;;47.53;26.00;;;;;;;;;;2104424;28;20485;-57
2022/01/01 00:35:18;;;;;;;46.35;23.65;;;;;;;;;;2106655;28;20276;-57
2022/01/01 00:36:19;;;;;;;45.65;24.88;;;;;;;;;;2106018;28;20079;-58
2022/01/01 00:37:20;;;;;;;45.50;25.07;;;;;;;;;;2104363;28;20404;-58
2022/01/01 00:38:21;;;;;;;48.92;26.42;;;;;;;;;;2106874;28;20144;-56
2022/01/01 00:39:22;;;;;;;47.30;24.95;;;;;;;;;;2106903;28;20396;-58
2022/01/01 00:40:23;;;;;;;46.33;24.98;;;;;;;;;;2104309;28;20057;-58
2022/01/01 00:41:24;;;;;;;43.83;22.33;;;;;;;;;;2106727;28;20165;-58
2022/01/01 00:42:25;;;;;;;40.80;21.98;;;;;;;;;;2106892;28;20127;-58
2022/01/01 00:43:26;;;;;;;39.83;21.75;;;;;;;;;;2104396;28;20377;-59
2022/01/01 00:44:30;;;;;;;42.38;21.60;;;;;;;;;;2106843;28;20500;-58
2022/01/01 00:45:31;;;;;;;38.80;21.15;;;;;;;;;;2106337;28;20174;-54
2022/01/01 00:46:32;;;;;;;38.40;21.98;;;;;;;;;;2104669;28;20083;-51
2022/01/01 00:47:33;;;;;;;40.77;21.10;;;;;;;;;;2106903;28;20181;-54
2022/01/01 00:48:34;;;;;;;34.80;19.05;;;;;;;;;;2105911;28;20044;-58
2022/01/01 00:49:55;;;;;;;35.08;18.65;;;;;;;;;;2113094;28;20055;-59
2022/01/01 00:50:56;;;;;;;36.60;18.70;;;;;;;;;;2115257;28;20514;-59
2022/01/01 00:51:57;;;;;;;31.38;17.95;;;;;;;;;;2106843;28;20105;-58
2022/01/01 00:52:58;;;;;;;38.58;21.23;;;;;;;;;;2106413;28;20459;-59
2022/01/01 00:53:59;;;;;;;36.00;20.38;;;;;;;;;;2106835;28;20059;-59
2022/01/01 00:55:00;;;;;;;35.45;19.88;;;;;;;;;;2104607;28;20544;-58
2022/01/01 00:56:01;;;;;;;39.75;20.63;;;;;;;;;;2105701;28;20119;-59
2022/01/01 00:57:03;;;;;;;41.53;21.58;;;;;;;;;;2106794;28;20437;-58
2022/01/01 00:58:04;;;;;;;49.30;25.38;;;;;;;;;;2107562;28;20496;-57
2022/01/01 00:59:05;;;;;;;63.33;30.30;;;;;;;;;;2098673;28;20109;-58
2022/01/01 01:00:07;;;;;;;73.88;34.67;;;;;;;;;;2098340;28;20549;-58
2022/01/01 01:01:07;;;;;;;;;;;;;;;;;;2105095;28;20068;-58
2022/01/01 01:02:09;;;;;;;70.30;30.83;;;;;;;;;;2115038;28;19927;-58
2022/01/01 01:03:10;;;;;;;;;;;;;;;;;;2115664;28;20093;-58
2022/01/01 01:04:11;;;;;;;71.18;33.30;;;;;;;;;;2104523;28;20428;-58
2022/01/01 01:05:12;;;;;;;58.35;28.30;;;;;;;;;;2106839;28;20076;-57
2022/01/01 01:06:14;;;;;;;63.20;27.23;;;;;;;;;;2106181;28;20049;-59
2022/01/01 01:07:15;;;;;;;60.75;26.75;;;;;;;;;;2104643;28;20447;-58
2022/01/01 01:08:16;;;;;;;48.05;21.73;;;;;;;;;;2106820;28;20089;-55
2022/01/01 01:09:17;;;;;;;42.10;21.20;;;;;;;;;;2106082;28;20402;-56
2022/01/01 01:10:18;;;;;;;44.83;19.33;;;;;;;;;;2102139;28;20126;-58
2022/01/01 01:11:19;;;;;;;28.90;14.93;;;;;;;;;;2098144;28;20277;-57
2022/01/01 01:12:25;;;;;;;34.83;17.37;;;;;;;;;;2099160;28;20101;-59
2022/01/01 01:13:28;;;;;;;30.17;15.65;;;;;;;;;;2109125;28;20333;-55
2022/01/01 01:14:39;;;;;;;30.35;14.95;;;;;;;;;;2115055;28;20048;-51
2022/01/01 01:15:40;;;;;;;34.50;16.63;;;;;;;;;;2107979;28;20056;-54
2022/01/01 01:16:41;;;;;;;25.90;15.07;;;;;;;;;;2100075;28;20048;-51
2022/01/01 01:17:43;;;;;;;31.70;16.03;;;;;;;;;;2098379;28;20054;-53
2022/01/01 01:18:44;;;;;;;28.83;13.98;;;;;;;;;;2101662;28;20367;-55
2022/01/01 01:19:45;;;;;;;33.90;14.60;;;;;;;;;;2114738;28;20138;-54
2022/01/01 01:20:46;;;;;;;26.60;13.82;;;;;;;;;;2115365;28;20044;-54
2022/01/01 01:21:49;;;;;;;23.90;13.23;;;;;;;;;;2109359;28;20071;-51
2022/01/01 01:22:49;;;;;;;27.80;13.70;;;;;;;;;;2098312;28;20135;-54
2022/01/01 01:23:51;;;;;;;29.90;13.40;;;;;;;;;;2098156;28;20056;-53
2022/01/01 01:24:53;;;;;;;26.48;14.65;;;;;;;;;;2102954;28;20044;-56
2022/01/01 01:25:56;;;;;;;27.65;13.60;;;;;;;;;;2106685;28;20058;-59
2022/01/01 01:27:01;;;;;;;27.10;13.88;;;;;;;;;;2106360;28;20134;-56
2022/01/01 01:28:07;;;;;;;31.25;14.65;;;;;;;;;;2104442;28;20047;-58
2022/01/01 01:29:08;;;;;;;29.30;13.20;;;;;;;;;;2106503;28;20483;-58
2022/01/01 01:30:10;;;;;;;24.05;13.10;;;;;;;;;;2105523;28;20055;-58
2022/01/01 01:31:11;;;;;;;23.83;13.88;;;;;;;;;;2105373;28;20131;-59
2022/01/01 01:32:12;;;;;;;27.40;13.43;;;;;;;;;;2104795;28;20051;-58
2022/01/01 01:33:14;;;;;;;24.00;12.37;;;;;;;;;;2104748;28;20047;-58
2022/01/01 01:34:15;;;;;;;27.98;13.07;;;;;;;;;;2105650;28;20119;-58
2022/01/01 01:35:16;;;;;;;22.60;12.40;;;;;;;;;;2106408;28;20138;-59
2022/01/01 01:36:17;;;;;;;26.77;13.13;;;;;;;;;;2105322;28;20047;-58
2022/01/01 01:37:18;;;;;;;26.10;13.20;;;;;;;;;;2100200;28;20136;-58
2022/01/01 01:38:19;;;;;;;27.17;14.77;;;;;;;;;;2098099;28;20048;-58
2022/01/01 01:39:20;;;;;;;23.02;13.45;;;;;;;;;;2101162;28;20059;-58
2022/01/01 01:40:21;;;;;;;26.80;13.73;;;;;;;;;;2105022;28;20046;-58
2022/01/01 01:41:23;;;;;;;26.90;14.65;;;;;;;;;;2106413;28;20549;-58
2022/01/01 01:42:25;;;;;;;27.17;13.70;;;;;;;;;;2105114;28;20125;-56
2022/01/01 01:43:26;;;;;;;26.40;14.90;;;;;;;;;;2105777;28;20119;-54
2022/01/01 01:44:29;;;;;;;25.58;13.00;;;;;;;;;;2106381;28;20050;-55
2022/01/01 01:45:31;;;;;;;27.67;14.82;;;;;;;;;;2104025;28;20043;-59
2022/01/01 01:46:32;;;;;;;30.93;15.47;;;;;;;;;;2106182;28;20052;-59
2022/01/01 01:47:36;;;;;;;27.38;13.73;;;;;;;;;;2105987;28;20050;-58
2022/01/01 01:48:38;;;;;;;28.35;13.52;;;;;;;;;;2105942;28;20054;-59
2022/01/01 01:49:39;;;;;;;25.20;14.02;;;;;;;;;;2098009;28;20078;-58
2022/01/01 01:50:40;;;;;;;23.73;13.10;;;;;;;;;;2098082;28;20044;-58
2022/01/01 01:51:42;;;;;;;29.67;13.87;;;;;;;;;;2103866;28;20519;-58
2022/01/01 01:52:44;;;;;;;22.23;12.13;;;;;;;;;;2106343;28;20813;-57
2022/01/01 01:53:45;;;;;;;22.15;12.18;;;;;;;;;;2105808;28;20131;-58
2022/01/01 01:54:46;;;;;;;29.87;13.63;;;;;;;;;;2104468;28;20373;-58
2022/01/01 01:55:47;;;;;;;26.88;12.77;;;;;;;;;;2106443;28;20690;-55
2022/01/01 01:56:48;;;;;;;25.77;13.45;;;;;;;;;;2105540;28;20138;-53
2022/01/01 01:57:49;;;;;;;28.75;14.13;;;;;;;;;;2104841;28;20054;-58
2022/01/01 01:58:50;;;;;;;25.38;12.80;;;;;;;;;;2106322;28;20131;-58
2022/01/01 01:59:52;;;;;;;26.58;14.05;;;;;;;;;;2105126;28;20148;-56
2022/01/01 02:02:09;;;;;;;27.23;13.82;;;;;;;;;;2085124;28;20513;-57
2022/01/01 02:03:10;;;;;;;29.38;14.90;;;;;;;;;;2103226;28;20448;-57
2022/01/01 02:04:12;;;;;;;28.35;14.85;;;;;;;;;;2106865;28;20047;-55
2022/01/01 02:05:13;;;;;;;40.92;15.48;;;;;;;;;;2106359;28;20119;-56
2022/01/01 02:06:15;;;;;;;36.73;16.83;;;;;;;;;;2103917;28;20048;-58
2022/01/01 02:07:16;;;;;;;35.65;16.33;;;;;;;;;;2106118;28;20485;-53
2022/01/01 02:08:19;;;;;;;35.08;16.75;;;;;;;;;;2106329;28;20130;-56
2022/01/01 02:09:20;;;;;;;35.42;16.77;;;;;;;;;;2103776;28;20036;-56
2022/01/01 02:10:21;;;;;;;38.63;17.42;;;;;;;;;;2097921;28;20504;-56
2022/01/01 02:11:23;;;;;;;36.45;17.25;;;;;;;;;;2097811;28;20078;-54
2022/01/01 02:12:24;;;;;;;38.22;18.00;;;;;;;;;;2105755;28;20485;-56
2022/01/01 02:13:30;;;;;;;36.92;17.92;;;;;;;;;;2097950;28;20059;-58
2022/01/01 02:14:48;;;;;;;36.33;17.40;;;;;;;;;;2098159;28;20127;-58
2022/01/01 02:16:12;;;;;;;41.05;17.50;;;;;;;;;;2108969;28;20128;-55
2022/01/01 02:17:13;;;;;;;38.65;18.48;;;;;;;;;;2115013;28;20071;-49
2022/01/01 02:18:14;;;;;;;38.70;18.48;;;;;;;;;;2105074;28;20096;-55
2022/01/01 02:19:15;;;;;;;41.53;16.77;;;;;;;;;;2106253;28;20047;-51
2022/01/01 02:20:19;;;;;;;34.20;17.30;;;;;;;;;;2106343;28;20048;-54
2022/01/01 02:21:20;;;;;;;37.72;17.45;;;;;;;;;;2104709;28;20405;-52
2022/01/01 02:22:21;;;;;;;37.97;17.23;;;;;;;;;;2106201;28;20123;-52
2022/01/01 02:23:25;;;;;;;37.92;17.65;;;;;;;;;;2105627;28;20119;-52
2022/01/01 02:24:26;;;;;;;39.28;17.85;;;;;;;;;;2105373;28;20135;-54
2022/01/01 02:25:28;;;;;;;37.85;17.67;;;;;;;;;;2106168;28;20036;-53
2022/01/01 02:26:31;;;;;;;36.78;17.05;;;;;;;;;;2105240;28;20131;-50
2022/01/01 02:27:32;;;;;;;40.65;17.90;;;;;;;;;;2101496;28;20139;-53
2022/01/01 02:28:33;;;;;;;42.15;18.52;;;;;;;;;;2102960;28;20048;-52
2022/01/01 02:29:34;;;;;;;40.47;17.85;;;;;;;;;;2104094;28;20055;-53
2022/01/01 02:30:35;;;;;;;47.15;18.98;;;;;;;;;;2104662;28;20044;-50
2022/01/01 02:31:36;;;;;;;37.83;17.45;;;;;;;;;;2097788;28;20056;-53
2022/01/01 02:32:38;;;;;;;40.17;17.52;;;;;;;;;;2099845;28;20093;-50
2022/01/01 02:33:39;;;;;;;31.20;16.02;;;;;;;;;;2103111;28;20071;-49
2022/01/01 02:34:41;;;;;;;34.25;15.80;;;;;;;;;;2097682;28;20051;-50
2022/01/01 02:35:42;;;;;;;39.95;17.52;;;;;;;;;;2101452;28;20055;-50
2022/01/01 02:36:44;;;;;;;41.38;18.45;;;;;;;;;;2101246;28;20051;-52
2022/01/01 02:37:45;;;;;;;37.90;18.67;;;;;;;;;;2097765;28;20198;-53
2022/01/01 02:38:46;;;;;;;37.45;17.42;;;;;;;;;;2100362;28;20044;-49
2022/01/01 02:39:47;;;;;;;33.70;16.48;;;;;;;;;;2113627;28;20184;-52
2022/01/01 02:40:48;;;;;;;40.20;16.67;;;;;;;;;;2114595;28;20280;-51
2022/01/01 02:41:50;;;;;;;37.95;17.13;;;;;;;;;;2106480;28;20382;-52
2022/01/01 02:42:53;;;;;;;38.03;18.52;;;;;;;;;;2112424;28;20054;-52
2022/01/01 02:43:54;;;;;;;34.22;15.32;;;;;;;;;;2114430;28;20503;-53
2022/01/01 02:44:58;;;;;;;43.95;18.48;;;;;;;;;;2105189;28;20056;-53
2022/01/01 02:45:59;;;;;;;42.92;18.25;;;;;;;;;;2097655;28;20048;-53
2022/01/01 02:47:00;;;;;;;43.53;18.53;;;;;;;;;;2097605;28;20564;-52
2022/01/01 02:48:01;;;;;;;47.40;19.67;;;;;;;;;;2105249;28;20315;-51
2022/01/01 02:49:02;;;;;;;45.17;19.15;;;;;;;;;;2114518;28;20054;-53
2022/01/01 02:50:04;;;;;;;41.88;18.60;;;;;;;;;;2113607;28;20134;-51
2022/01/01 02:51:05;;;;;;;50.95;19.88;;;;;;;;;;2106865;28;20574;-54
2022/01/01 02:52:06;;;;;;;47.22;19.33;;;;;;;;;;2114455;28;20527;-50
2022/01/01 02:53:10;;;;;;;48.30;20.10;;;;;;;;;;2112789;28;20534;-50
2022/01/01 02:54:11;;;;;;;44.80;18.25;;;;;;;;;;2104673;28;20132;-54
2022/01/01 02:55:13;;;;;;;47.30;19.70;;;;;;;;;;2097591;28;20508;-50
2022/01/01 02:56:13;;;;;;;56.70;21.98;;;;;;;;;;2098164;28;20048;-51
2022/01/01 02:57:14;;;;;;;48.67;19.55;;;;;;;;;;2104892;28;20048;-51
2022/01/01 02:58:15;;;;;;;57.25;23.52;;;;;;;;;;2105930;28;20126;-49
2022/01/01 02:59:16;;;;;;;50.45;21.17;;;;;;;;;;2103411;28;20089;-52
2022/01/01 03:00:17;;;;;;;54.47;21.40;;;;;;;;;;2109965;28;20179;-48
2022/01/01 03:01:19;;;;;;;58.00;24.08;;;;;;;;;;2114399;28;20188;-52
2022/01/01 03:02:20;;;;;;;57.30;23.00;;;;;;;;;;2109545;28;20540;-54
2022/01/01 03:03:21;;;;;;;68.40;24.08;;;;;;;;;;2104534;28;20048;-50
2022/01/01 03:04:22;;;;;;;61.40;24.63;;;;;;;;;;2105907;28;20127;-50
2022/01/01 03:05:24;;;;;;;69.75;25.08;;;;;;;;;;2103785;28;20044;-54
2022/01/01 03:06:28;;;;;;;68.05;24.17;;;;;;;;;;2112670;28;20096;-51
2022/01/01 03:07:29;;;;;;;74.60;25.27;;;;;;;;;;2114289;28;20044;-53
2022/01/01 03:08:30;;;;;;;64.28;24.70;;;;;;;;;;2109376;28;20043;-53
2022/01/01 03:09:34;;;;;;;74.18;26.65;;;;;;;;;;2098663;28;20056;-53
2022/01/01 03:10:35;;;;;;;65.20;26.70;;;;;;;;;;2097511;28;20044;-51
2022/01/01 03:11:36;;;;;;;69.10;27.17;;;;;;;;;;2101993;28;20379;-54
2022/01/01 03:12:37;;;;;;;65.43;25.40;;;;;;;;;;2105649;28;20052;-51
2022/01/01 03:13:38;;;;;;;67.57;25.30;;;;;;;;;;2105969;28;20052;-53
2022/01/01 03:14:39;;;;;;;71.23;28.50;;;;;;;;;;2106085;28;20108;-54
2022/01/01 03:15:40;;;;;;;63.72;24.67;;;;;;;;;;2097495;28;20835;-52
2022/01/01 03:16:42;;;;;;;66.25;23.77;;;;;;;;;;2097423;28;20052;-52
2022/01/01 03:17:42;;;;;;;71.40;26.38;;;;;;;;;;2103186;28;20127;-51
2022/01/01 03:18:43;;;;;;;67.07;26.30;;;;;;;;;;2105872;28;20056;-51
2022/01/01 03:19:45;;;;;;;62.42;24.10;;;;;;;;;;2105291;28;20209;-51
2022/01/01 03:20:45;;;;;;;62.42;22.02;;;;;;;;;;2106829;28;20135;-54
2022/01/01 03:21:47;;;;;;;70.03;27.20;;;;;;;;;;2114244;28;20112;-51
2022/01/01 03:22:48;;;;;;;73.00;28.85;;;;;;;;;;2112671;28;20048;-54
2022/01/01 03:23:49;;;;;;;71.80;29.67;;;;;;;;;;2103864;28;20486;-49
2022/01/01 03:24:50;;;;;;;66.00;27.55;;;;;;;;;;2105551;28;20104;-52
2022/01/01 03:25:51;;;;;;;72.20;26.40;;;;;;;;;;2104707;28;20044;-54
2022/01/01 03:26:52;;;;;;;78.07;29.47;;;;;;;;;;2104457;28;20500;-55
2022/01/01 03:27:53;;;;;;;54.45;23.48;;;;;;;;;;2105850;28;20360;-52
2022/01/01 03:28:54;;;;;;;66.00;25.67;;;;;;;;;;2103923;28;20131;-53
2022/01/01 03:29:55;;;;;;;62.77;26.50;;;;;;;;;;2104432;28;20408;-50
2022/01/01 03:30:57;;;;;;;64.68;26.23;;;;;;;;;;2097377;28;20052;-54
2022/01/01 03:31:58;;;;;;;66.93;27.13;;;;;;;;;;2096995;28;20053;-55
2022/01/01 03:32:59;;;;;;;74.88;29.10;;;;;;;;;;2104154;28;20493;-50
2022/01/01 03:34:00;;;;;;;72.93;28.20;;;;;;;;;;2105820;28;20052;-51
2022/01/01 03:35:01;;;;;;;77.82;30.48;;;;;;;;;;2104676;28;20453;-54
2022/01/01 03:36:02;;;;;;;64.65;23.35;;;;;;;;;;2104308;28;20097;-50
2022/01/01 03:37:04;;;;;;;65.07;24.42;;;;;;;;;;2105758;28;20127;-54
2022/01/01 03:38:05;;;;;;;67.80;28.73;;;;;;;;;;2105599;28;20119;-52
2022/01/01 03:39:06;;;;;;;64.05;25.50;;;;;;;;;;2105764;28;20131;-49
2022/01/01 03:40:08;;;;;;;64.90;26.90;;;;;;;;;;2105647;28;20054;-53
2022/01/01 03:41:09;;;;;;;53.15;23.50;;;;;;;;;;2103719;28;20070;-53
2022/01/01 03:42:10;;;;;;;65.68;25.90;;;;;;;;;;2105338;28;20040;-53
2022/01/01 03:43:11;;;;;;;70.15;29.58;;;;;;;;;;2105819;28;20044;-51
2022/01/01 03:44:12;;;;;;;69.28;27.63;;;;;;;;;;2103427;28;20317;-51
2022/01/01 03:45:13;;;;;;;70.88;29.50;;;;;;;;;;2105532;28;20374;-51
2022/01/01 03:46:14;;;;;;;77.05;29.50;;;;;;;;;;2105600;28;20055;-50
2022/01/01 03:47:15;;;;;;;63.67;27.05;;;;;;;;;;2103157;28;20055;-52
2022/01/01 03:48:16;;;;;;;65.55;26.52;;;;;;;;;;2105647;28;20105;-52
2022/01/01 03:49:17;;;;;;;59.90;24.70;;;;;;;;;;2105771;28;20127;-50
2022/01/01 03:50:18;;;;;;;71.03;30.00;;;;;;;;;;2104379;28;20050;-53
2022/01/01 03:51:19;;;;;;;58.63;24.08;;;;;;;;;;2105522;28;20378;-53
2022/01/01 03:52:21;;;;;;;73.38;29.30;;;;;;;;;;2105653;28;20054;-50
2022/01/01 03:53:24;;;;;;;76.68;33.10;;;;;;;;;;2104176;28;20564;-51
2022/01/01 03:54:25;;;;;;;76.38;30.35;;;;;;;;;;2097389;28;20116;-52
2022/01/01 03:55:26;;;;;;;74.68;30.08;;;;;;;;;;2097947;28;20048;-54
2022/01/01 03:56:27;;;;;;;64.90;29.38;;;;;;;;;;2107015;28;20048;-52
2022/01/01 03:57:28;;;;;;;76.90;30.13;;;;;;;;;;2105526;28;20492;-52
2022/01/01 03:58:29;;;;;;;70.63;28.52;;;;;;;;;;2104544;28;20284;-55
2022/01/01 03:59:30;;;;;;;71.70;29.60;;;;;;;;;;2104361;28;20079;-53
2022/01/01 04:00:31;;;;;;;73.22;27.40;;;;;;;;;;2105598;28;20040;-52
2022/01/01 04:01:32;;;;;;;65.28;25.80;;;;;;;;;;2103490;28;20239;-50
2022/01/01 04:02:34;;;;;;;52.85;20.20;;;;;;;;;;2110390;28;20054;-54
2022/01/01 04:03:35;;;;;;;74.80;24.40;;;;;;;;;;2114140;28;20055;-52
2022/01/01 04:04:36;;;;;;;56.00;22.73;;;;;;;;;;2109553;28;20045;-51
2022/01/01 04:05:40;;;;;;;67.93;24.90;;;;;;;;;;2105182;28;20549;-54
2022/01/01 04:06:41;;;;;;;57.65;22.17;;;;;;;;;;2105622;28;20085;-53
2022/01/01 04:07:42;;;;;;;66.35;25.42;;;;;;;;;;2104805;28;20174;-53
2022/01/01 04:08:43;;;;;;;66.30;22.08;;;;;;;;;;2104043;28;20077;-51
2022/01/01 04:09:44;;;;;;;68.72;25.38;;;;;;;;;;2105652;28;20056;-51
2022/01/01 04:10:45;;;;;;;44.85;18.35;;;;;;;;;;2105899;28;20078;-52
2022/01/01 04:11:46;;;;;;;68.43;24.52;;;;;;;;;;2100036;28;20059;-52
2022/01/01 04:12:47;;;;;;;65.50;23.85;;;;;;;;;;2098710;28;20048;-52
2022/01/01 04:13:48;;;;;;;61.58;23.85;;;;;;;;;;2105464;28;20526;-54
2022/01/01 04:14:49;;;;;;;53.63;20.73;;;;;;;;;;2099540;28;20313;-54
2022/01/01 04:15:50;;;;;;;68.07;26.77;;;;;;;;;;2098582;28;20123;-51
2022/01/01 04:16:53;;;;;;;70.77;22.87;;;;;;;;;;2103871;28;20453;-54
2022/01/01 04:17:58;;;;;;;58.90;21.75;;;;;;;;;;2106770;28;20619;-51
2022/01/01 04:18:59;;;;;;;66.65;25.48;;;;;;;;;;2106867;28;20143;-55
2022/01/01 04:20:00;;;;;;;56.78;21.05;;;;;;;;;;2105714;28;20108;-53
2022/01/01 04:21:01;;;;;;;54.47;21.30;;;;;;;;;;2109952;28;20112;-51
2022/01/01 04:22:02;;;;;;;63.03;23.67;;;;;;;;;;2106277;28;20077;-54
2022/01/01 04:23:07;;;;;;;63.92;25.20;;;;;;;;;;2107674;28;20121;-54
2022/01/01 04:24:08;;;;;;;60.65;22.17;;;;;;;;;;2098510;28;20408;-54
2022/01/01 04:25:09;;;;;;;58.77;21.67;;;;;;;;;;2099270;28;20051;-51
2022/01/01 04:26:10;;;;;;;59.38;22.77;;;;;;;;;;2105869;28;20128;-52
2022/01/01 04:27:11;;;;;;;70.50;26.70;;;;;;;;;;2098528;28;20643;-55
2022/01/01 04:28:12;;;;;;;65.30;24.42;;;;;;;;;;2099360;28;20044;-55
2022/01/01 04:29:13;;;;;;;51.70;21.10;;;;;;;;;;2106213;28;20109;-54
2022/01/01 04:30:14;;;;;;;52.87;22.53;;;;;;;;;;2107218;28;20355;-58
2022/01/01 04:31:15;;;;;;;49.45;20.23;;;;;;;;;;2104817;28;20280;-58
2022/01/01 04:32:18;;;;;;;51.53;20.27;;;;;;;;;;2108443;28;20051;-57
2022/01/01 04:33:19;;;;;;;57.72;22.65;;;;;;;;;;2115319;28;20044;-58
2022/01/01 04:34:20;;;;;;;56.88;22.52;;;;;;;;;;2110647;28;20036;-58
2022/01/01 04:35:21;;;;;;;49.03;19.30;;;;;;;;;;2103111;28;20489;-58
2022/01/01 04:36:23;;;;;;;58.22;21.05;;;;;;;;;;2098402;28;20037;-57
2022/01/01 04:37:24;;;;;;;55.97;22.20;;;;;;;;;;2100058;28;20135;-57
2022/01/01 04:38:36;;;;;;;54.40;22.50;;;;;;;;;;2105595;28;20050;-57
2022/01/01 04:39:37;;;;;;;45.70;18.52;;;;;;;;;;2106881;28;20135;-58
2022/01/01 04:40:38;;;;;;;60.20;22.55;;;;;;;;;;2104238;28;20044;-57
2022/01/01 04:41:40;;;;;;;48.27;18.67;;;;;;;;;;2098553;28;20044;-55
2022/01/01 04:42:42;;;;;;;58.65;22.20;;;;;;;;;;2098577;28;20131;-56
2022/01/01 04:43:43;;;;;;;57.13;21.73;;;;;;;;;;2106368;28;20051;-57
2022/01/01 04:44:44;;;;;;;50.35;20.80;;;;;;;;;;2098594;28;20350;-57
2022/01/01 04:45:45;;;;;;;57.30;21.08;;;;;;;;;;2098203;28;20048;-57
2022/01/01 04:46:46;;;;;;;55.20;20.83;;;;;;;;;;2105830;28;20927;-57
2022/01/01 04:47:47;;;;;;;42.42;17.63;;;;;;;;;;2106685;28;20071;-57
2022/01/01 04:48:48;;;;;;;52.80;23.33;;;;;;;;;;2106367;28;20048;-56
2022/01/01 04:49:49;;;;;;;56.97;21.02;;;;;;;;;;2105810;28;20050;-56
2022/01/01 04:50:50;;;;;;;50.83;20.77;;;;;;;;;;2106745;28;20044;-56
2022/01/01 04:51:51;;;;;;;49.85;20.85;;;;;;;;;;2105885;28;20043;-57
2022/01/01 04:52:53;;;;;;;37.77;16.13;;;;;;;;;;2108345;28;20095;-56
2022/01/01 04:53:59;;;;;;;43.83;19.25;;;;;;;;;;2115184;28;20131;-55
2022/01/01 04:55:02;;;;;;;45.25;19.00;;;;;;;;;;2110562;28;20378;-56
2022/01/01 04:56:06;;;;;;;38.50;17.17;;;;;;;;;;2105408;28;20046;-55
2022/01/01 04:57:07;;;;;;;48.08;18.95;;;;;;;;;;2106852;28;20123;-56
2022/01/01 04:58:08;;;;;;;49.58;19.92;;;;;;;;;;2106570;28;20127;-56
2022/01/01 04:59:09;;;;;;;43.80;17.90;;;;;;;;;;2101584;28;20413;-54
2022/01/01 05:00:11;;;;;;;42.53;15.88;;;;;;;;;;2098380;28;20123;-55
2022/01/01 05:01:13;;;;;;;47.67;19.13;;;;;;;;;;2101947;28;20337;-55
2022/01/01 05:02:14;;;;;;;50.53;20.80;;;;;;;;;;2106137;28;20501;-56
2022/01/01 05:03:15;;;;;;;41.42;18.80;;;;;;;;;;2106613;28;20094;-57
2022/01/01 05:04:17;;;;;;;38.65;16.95;;;;;;;;;;2104415;28;20047;-56
2022/01/01 05:05:17;;;;;;;42.22;17.67;;;;;;;;;;2106562;28;20115;-55
2022/01/01 05:06:18;;;;;;;45.80;17.88;;;;;;;;;;2106678;28;20046;-53
2022/01/01 05:07:19;;;;;;;36.53;15.70;;;;;;;;;;2104256;28;20560;-57
2022/01/01 05:08:20;;;;;;;42.20;18.02;;;;;;;;;;2106749;28;20280;-58
2022/01/01 05:09:22;;;;;;;35.90;16.10;;;;;;;;;;2106595;28;20520;-53
2022/01/01 05:10:24;;;;;;;41.78;18.70;;;;;;;;;;2105873;28;20405;-57
2022/01/01 05:11:25;;;;;;;;;;;;;;;;;;2115570;28;20580;-57
2022/01/01 05:12:26;;;;;;;36.92;16.38;;;;;;;;;;2115173;28;20127;-57
2022/01/01 05:13:27;;;;;;;38.65;17.05;;;;;;;;;;2106563;28;20130;-58
2022/01/01 05:14:29;;;;;;;34.93;16.20;;;;;;;;;;2098197;28;20052;-55
2022/01/01 05:15:31;;;;;;;35.95;16.83;;;;;;;;;;2098720;28;20052;-58
2022/01/01 05:16:32;;;;;;;34.33;16.50;;;;;;;;;;2108135;28;20134;-57
2022/01/01 05:17:33;;;;;;;39.35;16.27;;;;;;;;;;2107072;28;20293;-58
2022/01/01 05:18:36;;;;;;;30.48;15.23;;;;;;;;;;2105677;28;20056;-58
2022/01/01 05:19:37;;;;;;;32.40;14.82;;;;;;;;;;2110106;28;20130;-57
2022/01/01 05:20:38;;;;;;;35.35;15.85;;;;;;;;;;2114976;28;20484;-58
2022/01/01 05:21:39;;;;;;;31.97;15.03;;;;;;;;;;2110310;28;20051;-58
2022/01/01 05:22:40;;;;;;;32.65;14.32;;;;;;;;;;2104879;28;20048;-57
2022/01/01 05:23:41;;;;;;;34.63;14.93;;;;;;;;;;2098306;28;20131;-54
2022/01/01 05:24:43;;;;;;;33.50;14.73;;;;;;;;;;2099436;28;20127;-57
2022/01/01 05:25:44;;;;;;;28.13;13.50;;;;;;;;;;2112217;28;20054;-56
2022/01/01 05:26:45;;;;;;;26.67;13.85;;;;;;;;;;2115024;28;20485;-56
2022/01/01 05:27:46;;;;;;;36.28;14.32;;;;;;;;;;2110118;28;20461;-56
2022/01/01 05:28:49;;;;;;;28.73;13.57;;;;;;;;;;2102241;28;20049;-56
2022/01/01 05:29:50;;;;;;;29.15;12.90;;;;;;;;;;2098177;28;20128;-56
2022/01/01 05:30:51;;;;;;;24.93;12.13;;;;;;;;;;2101742;28;20608;-56
2022/01/01 05:31:52;;;;;;;22.98;11.45;;;;;;;;;;2104181;28;20059;-56
2022/01/01 05:32:53;;;;;;;23.60;11.27;;;;;;;;;;2106471;28;20100;-53
2022/01/01 05:33:55;;;;;;;27.38;12.50;;;;;;;;;;2103293;28;20051;-58
2022/01/01 05:34:56;;;;;;;22.60;12.13;;;;;;;;;;2105583;28;20048;-56
2022/01/01 05:35:57;;;;;;;22.40;10.88;;;;;;;;;;2106400;28;20135;-56
2022/01/01 05:36:59;;;;;;;20.23;10.43;;;;;;;;;;2107291;28;20058;-51
2022/01/01 05:37:59;;;;;;;20.55;10.68;;;;;;;;;;2098398;28;20127;-57
2022/01/01 05:39:20;;;;;;;19.67;9.25;;;;;;;;;;2098685;28;20041;-55
2022/01/01 05:40:23;;;;;;;20.77;10.02;;;;;;;;;;2109374;28;20130;-57
2022/01/01 05:41:24;;;;;;;19.80;10.30;;;;;;;;;;2114776;28;20058;-58
2022/01/01 05:42:25;;;;;;;21.88;10.30;;;;;;;;;;2110351;28;20123;-53
2022/01/01 05:43:26;;;;;;;20.37;10.13;;;;;;;;;;2104864;28;20053;-55
2022/01/01 05:44:27;;;;;;;21.10;11.30;;;;;;;;;;2098146;28;20050;-57
2022/01/01 05:45:29;;;;;;;19.15;9.38;;;;;;;;;;2100381;28;20044;-55
2022/01/01 05:46:31;;;;;;;23.73;10.70;;;;;;;;;;2104855;28;20486;-56
2022/01/01 05:47:32;;;;;;;20.42;9.90;;;;;;;;;;2106292;28;20052;-55
2022/01/01 05:48:33;;;;;;;18.70;10.23;;;;;;;;;;2105538;28;20040;-55
2022/01/01 05:49:34;;;;;;;19.00;10.30;;;;;;;;;;2106232;28;20302;-57
2022/01/01 05:50:35;;;;;;;19.97;10.10;;;;;;;;;;2106379;28;20046;-56
2022/01/01 05:51:36;;;;;;;17.58;9.43;;;;;;;;;;2103888;28;20139;-56
2022/01/01 05:52:37;;;;;;;18.48;9.38;;;;;;;;;;2113089;28;20177;-56
2022/01/01 05:53:38;;;;;;;17.95;9.55;;;;;;;;;;2114926;28;20051;-56
2022/01/01 05:54:39;;;;;;;17.60;9.73;;;;;;;;;;2106850;28;20067;-55
2022/01/01 05:55:41;;;;;;;20.10;9.30;;;;;;;;;;2114600;28;20051;-56
2022/01/01 05:56:42;;;;;;;15.90;8.43;;;;;;;;;;2114778;28;20035;-56
2022/01/01 05:57:43;;;;;;;20.55;9.88;;;;;;;;;;2105989;28;20136;-55
2022/01/01 05:58:44;;;;;;;16.63;9.85;;;;;;;;;;2106133;28;20131;-56
2022/01/01 05:59:45;;;;;;;14.23;8.05;;;;;;;;;;2106408;28;20050;-56
2022/01/01 06:00:46;;;;;;;17.35;9.30;;;;;;;;;;2103708;28;20483;-57